Time;durP1;ratioP1;P1;durP2;ratioP2;P2;SDS_P1;SDS_P2;PMS_P1;PMS_P2;Temp;Humidity;BMP_temperature;BMP_pressure;BME280_temperature;BME280_humidity;BME280_pressure;Samples;Min_cycle;Max_cycle;Signal;HPM_P1;HPM_P2
2021/07/02 00:02:16;;;;;;;1.38;1.10;;;24.70;50.80;;;;;;5083190;28;20039;-58
2021/07/02 00:04:41;;;;;;;2.35;1.10;;;24.70;50.80;;;;;;5082324;28;20371;-59
2021/07/02 00:07:07;;;;;;;1.55;1.10;;;24.70;50.80;;;;;;5084221;28;20024;-60
2021/07/02 00:09:33;;;;;;;1.60;1.10;;;24.70;50.80;;;;;;5085283;28;20067;-59
2021/07/02 00:11:59;;;;;;;1.98;1.20;;;24.70;50.80;;;;;;5094963;28;20039;-58
2021/07/02 00:14:24;;;;;;;1.58;1.00;;;24.70;50.80;;;;;;5089213;28;20039;-60
2021/07/02 00:16:50;;;;;;;1.38;1.08;;;24.70;50.80;;;;;;5087259;28;20294;-57
2021/07/02 00:19:16;;;;;;;2.10;0.93;;;24.70;50.80;;;;;;5100708;28;20106;-57
2021/07/02 00:21:42;;;;;;;1.40;1.00;;;24.70;50.80;;;;;;5088535;28;20020;-59
2021/07/02 00:24:07;;;;;;;1.25;1.00;;;24.70;50.80;;;;;;5088641;28;20144;-59
2021/07/02 00:26:35;;;;;;;2.60;1.20;;;24.70;50.80;;;;;;5087673;28;20028;-60
2021/07/02 00:29:02;;;;;;;1.75;1.15;;;24.70;50.80;;;;;;5088304;28;20028;-60
2021/07/02 00:31:27;;;;;;;1.40;1.00;;;24.70;50.80;;;;;;5087186;28;20036;-60
2021/07/02 00:33:53;;;;;;;1.50;0.93;;;24.70;50.80;;;;;;5087233;28;20035;-60
2021/07/02 00:36:19;;;;;;;1.92;1.20;;;24.70;50.80;;;;;;5087925;28;20043;-54
2021/07/02 00:38:44;;;;;;;1.50;1.10;;;24.70;50.80;;;;;;5092463;28;20439;-59
2021/07/02 00:41:10;;;;;;;1.50;1.00;;;24.70;50.80;;;;;;5087996;28;20403;-58
2021/07/02 00:43:37;;;;;;;2.28;1.00;;;24.70;50.80;;;;;;5087299;28;20023;-60
2021/07/02 00:46:03;;;;;;;2.35;1.20;;;24.60;50.70;;;;;;5087640;28;20021;-58
2021/07/02 00:48:29;;;;;;;1.48;1.08;;;24.70;50.80;;;;;;5086841;28;20535;-59
2021/07/02 00:50:55;;;;;;;1.75;1.00;;;24.70;50.80;;;;;;5087697;28;20293;-60
2021/07/02 00:53:22;;;;;;;1.40;1.00;;;24.60;50.70;;;;;;5084829;28;20067;-56
2021/07/02 00:55:49;;;;;;;1.73;0.93;;;24.60;50.70;;;;;;5081253;28;20586;-59
2021/07/02 00:58:14;;;;;;;1.92;1.10;;;24.60;50.70;;;;;;5086800;28;20032;-60
2021/07/02 01:00:40;;;;;;;1.35;0.93;;;24.60;50.70;;;;;;5082299;28;20497;-57
2021/07/02 01:03:06;;;;;;;1.42;0.90;;;24.60;50.70;;;;;;5083501;28;20063;-60
2021/07/02 01:05:31;;;;;;;2.38;1.10;;;24.60;50.70;;;;;;5085307;28;20039;-59
2021/07/02 01:07:58;;;;;;;1.52;1.10;;;24.60;51.20;;;;;;5087481;28;20055;-59
2021/07/02 01:10:24;;;;;;;1.52;1.02;;;24.60;50.70;;;;;;5087552;28;20030;-59
2021/07/02 01:12:50;;;;;;;1.75;1.02;;;24.60;50.70;;;;;;5085826;28;20032;-60
2021/07/02 01:15:23;;;;;;;1.50;1.10;;;24.60;50.70;;;;;;5087020;28;20029;-58
2021/07/02 01:17:49;;;;;;;1.70;1.10;;;24.60;50.70;;;;;;5085511;28;20028;-59
2021/07/02 01:20:15;;;;;;;1.55;1.00;;;24.60;50.70;;;;;;5086141;28;20118;-60
2021/07/02 01:22:41;;;;;;;1.85;1.15;;;24.60;50.70;;;;;;5085609;28;20107;-57
2021/07/02 01:25:07;;;;;;;1.35;1.02;;;24.60;50.70;;;;;;5085983;28;20127;-58
2021/07/02 01:27:34;;;;;;;1.77;1.20;;;24.60;50.70;;;;;;5084392;28;20505;-59
2021/07/02 01:29:59;;;;;;;1.52;1.00;;;24.60;50.70;;;;;;5085614;28;20119;-59
2021/07/02 01:32:26;;;;;;;1.30;0.93;;;24.60;50.70;;;;;;5084804;28;20130;-60
2021/07/02 01:34:51;;;;;;;1.60;0.93;;;24.60;50.70;;;;;;5080551;28;20078;-57
2021/07/02 01:37:17;;;;;;;1.27;1.08;;;24.60;50.70;;;;;;5086267;28;20055;-58
2021/07/02 01:39:43;;;;;;;1.52;1.00;;;24.60;50.70;;;;;;5103093;28;20024;-59
2021/07/02 01:42:10;;;;;;;1.60;1.00;;;24.60;50.70;;;;;;5075967;28;20059;-59
2021/07/02 01:44:37;;;;;;;1.45;1.00;;;24.60;50.70;;;;;;5086160;28;20020;-59
2021/07/02 01:47:03;;;;;;;1.67;1.08;;;24.50;50.60;;;;;;5085403;28;20035;-60
2021/07/02 01:49:29;;;;;;;1.65;1.00;;;24.50;50.60;;;;;;5084998;28;20443;-61
2021/07/02 01:51:55;;;;;;;1.55;1.00;;;24.50;50.70;;;;;;5086205;28;20129;-57
2021/07/02 01:54:20;;;;;;;1.42;1.00;;;24.50;50.70;;;;;;5084985;28;20307;-60
2021/07/02 01:56:48;;;;;;;1.85;1.05;;;24.50;50.70;;;;;;5083296;28;20089;-59
2021/07/02 01:59:15;;;;;;;1.63;1.15;;;24.50;50.70;;;;;;5086254;28;20093;-58
2021/07/02 02:01:41;;;;;;;1.45;1.08;;;24.50;50.70;;;;;;5084006;28;20051;-59
2021/07/02 02:04:07;;;;;;;1.38;1.10;;;24.50;50.70;;;;;;5085254;28;20217;-58
2021/07/02 02:06:33;;;;;;;1.52;1.00;;;24.50;50.70;;;;;;5084628;28;20085;-58
2021/07/02 02:08:58;;;;;;;2.13;1.00;;;24.50;50.70;;;;;;5086528;28;20020;-61
2021/07/02 02:11:24;;;;;;;1.90;1.08;;;24.50;50.70;;;;;;5085363;28;20061;-60
2021/07/02 02:13:49;;;;;;;1.48;1.20;;;24.50;50.70;;;;;;5092670;28;20024;-58
2021/07/02 02:16:15;;;;;;;2.03;1.10;;;24.50;50.70;;;;;;5085416;28;20056;-60
2021/07/02 02:18:40;;;;;;;1.70;1.10;;;24.50;50.70;;;;;;5066315;28;20043;-59
2021/07/02 02:21:06;;;;;;;1.15;0.98;;;24.50;50.70;;;;;;5085629;28;20046;-58
2021/07/02 02:23:32;;;;;;;1.33;1.05;;;24.40;50.60;;;;;;5085110;28;20043;-58
2021/07/02 02:25:57;;;;;;;1.63;1.00;;;24.50;50.70;;;;;;5083461;28;20107;-59
2021/07/02 02:28:23;;;;;;;1.63;1.10;;;24.40;50.60;;;;;;5085425;28;20043;-61
2021/07/02 02:30:48;;;;;;;1.88;1.00;;;24.40;50.60;;;;;;5085562;28;20127;-59
2021/07/02 02:33:14;;;;;;;1.85;1.00;;;24.40;50.60;;;;;;5082361;28;20039;-60
2021/07/02 02:35:40;;;;;;;1.40;1.00;;;24.50;50.70;;;;;;5083594;28;20033;-59
2021/07/02 02:38:06;;;;;;;1.25;0.90;;;24.40;50.60;;;;;;5085240;28;20032;-60
2021/07/02 02:40:31;;;;;;;1.77;1.17;;;24.40;50.60;;;;;;5085786;28;20028;-58
2021/07/02 02:42:57;;;;;;;1.58;1.00;;;24.40;50.70;;;;;;5083661;28;20517;-59
2021/07/02 02:45:22;;;;;;;1.30;0.93;;;24.40;50.60;;;;;;5069467;28;20073;-59
2021/07/02 02:47:48;;;;;;;1.50;1.10;;;24.40;50.60;;;;;;5083635;28;20027;-58
2021/07/02 02:50:14;;;;;;;1.20;1.00;;;24.40;50.60;;;;;;5083645;28;20036;-57
2021/07/02 02:52:40;;;;;;;1.85;1.10;;;24.40;51.20;;;;;;5084014;28;20107;-58
2021/07/02 02:55:06;;;;;;;1.00;0.90;;;24.40;50.70;;;;;;5084043;28;20028;-59
2021/07/02 02:57:31;;;;;;;1.33;1.00;;;24.40;50.60;;;;;;5082115;28;20024;-58
2021/07/02 02:59:57;;;;;;;1.60;1.13;;;24.40;50.70;;;;;;5084259;28;20038;-57
2021/07/02 03:02:22;;;;;;;1.52;1.00;;;24.30;50.60;;;;;;5083226;28;20135;-60
2021/07/02 03:04:48;;;;;;;1.02;0.90;;;24.40;50.70;;;;;;5082358;28;20321;-59
2021/07/02 03:07:14;;;;;;;1.40;1.10;;;24.40;50.70;;;;;;5085598;28;20059;-59
2021/07/02 03:09:39;;;;;;;0.90;0.85;;;24.40;50.70;;;;;;5085084;28;20420;-60
2021/07/02 03:12:05;;;;;;;1.15;0.95;;;24.40;50.70;;;;;;5084575;28;20032;-60
2021/07/02 03:14:31;;;;;;;1.30;0.93;;;24.40;50.60;;;;;;5090873;28;20107;-59
2021/07/02 03:16:57;;;;;;;1.52;0.95;;;24.40;50.70;;;;;;5089840;28;20431;-59
2021/07/02 03:19:23;;;;;;;1.52;0.93;;;24.40;50.70;;;;;;5084252;28;20371;-59
2021/07/02 03:21:49;;;;;;;1.27;1.00;;;24.30;50.60;;;;;;5083928;28;20044;-60
2021/07/02 03:24:15;;;;;;;1.45;0.98;;;24.30;50.60;;;;;;5083082;28;20117;-60
2021/07/02 03:26:40;;;;;;;1.33;0.95;;;24.40;50.70;;;;;;5099924;28;20028;-60
2021/07/02 03:29:07;;;;;;;1.25;1.00;;;24.30;50.60;;;;;;5063952;28;20505;-57
2021/07/02 03:31:33;;;;;;;1.30;1.00;;;24.30;50.60;;;;;;5081532;28;20571;-59
2021/07/02 03:33:58;;;;;;;1.75;1.13;;;24.30;50.60;;;;;;5082114;28;20032;-59
2021/07/02 03:36:24;;;;;;;1.50;0.98;;;24.40;50.70;;;;;;5083734;28;20035;-59
2021/07/02 03:38:50;;;;;;;1.52;1.05;;;24.40;50.70;;;;;;5082768;28;20036;-59
2021/07/02 03:41:16;;;;;;;1.70;1.10;;;24.40;50.70;;;;;;5086746;28;20055;-59
2021/07/02 03:43:42;;;;;;;1.20;1.02;;;24.30;50.60;;;;;;5082620;28;20366;-59
2021/07/02 03:46:07;;;;;;;1.40;1.00;;;24.30;50.70;;;;;;5085124;28;20256;-60
2021/07/02 03:48:33;;;;;;;1.20;1.00;;;24.30;50.60;;;;;;5097882;28;20047;-59
2021/07/02 03:50:58;;;;;;;1.30;1.00;;;24.30;50.70;;;;;;5086452;28;20438;-60
2021/07/02 03:53:24;;;;;;;1.08;0.90;;;24.30;50.70;;;;;;5089683;28;20089;-58
2021/07/02 03:55:50;;;;;;;1.55;1.10;;;24.30;50.70;;;;;;5104009;28;20032;-59
2021/07/02 03:58:16;;;;;;;1.45;0.98;;;24.30;50.70;;;;;;5098226;28;20050;-59
2021/07/02 04:00:41;;;;;;;1.40;1.02;;;24.30;50.70;;;;;;5093752;28;20036;-60
2021/07/02 04:03:07;;;;;;;1.30;1.05;;;24.30;50.70;;;;;;5085897;28;20032;-60
2021/07/02 04:05:33;;;;;;;1.48;0.95;;;24.30;50.60;;;;;;5088297;28;20437;-60
2021/07/02 04:07:58;;;;;;;1.30;0.88;;;24.30;50.70;;;;;;5081515;28;20530;-61
2021/07/02 04:10:24;;;;;;;1.52;1.15;;;24.30;50.70;;;;;;5080615;28;20026;-59
2021/07/02 04:12:49;;;;;;;1.55;1.13;;;24.30;50.70;;;;;;5085483;28;20375;-60
2021/07/02 04:15:15;;;;;;;1.95;1.13;;;24.30;51.20;;;;;;5086700;28;20091;-59
2021/07/02 04:17:41;;;;;;;1.75;1.08;;;24.20;50.60;;;;;;5085690;28;20179;-60
2021/07/02 04:20:09;;;;;;;1.60;1.08;;;24.30;50.60;;;;;;5084158;28;20469;-59
2021/07/02 04:22:36;;;;;;;1.15;1.00;;;24.30;50.70;;;;;;5085653;28;20028;-60
2021/07/02 04:25:05;;;;;;;1.10;1.00;;;24.30;50.60;;;;;;5084881;28;20367;-59
2021/07/02 04:27:30;;;;;;;1.48;1.02;;;24.20;50.60;;;;;;5087448;28;20024;-59
2021/07/02 04:29:56;;;;;;;1.63;1.10;;;24.30;50.70;;;;;;5084149;28;20114;-59
2021/07/02 04:32:22;;;;;;;1.27;1.00;;;24.20;50.60;;;;;;5085175;28;20075;-59
2021/07/02 04:34:48;;;;;;;1.90;1.10;;;24.20;50.60;;;;;;5084215;28;20039;-58
2021/07/02 04:37:13;;;;;;;1.55;1.05;;;24.20;50.60;;;;;;5083352;28;20031;-59
2021/07/02 04:39:39;;;;;;;1.40;1.00;;;24.20;50.60;;;;;;5069178;28;20164;-59
2021/07/02 04:42:05;;;;;;;1.40;1.00;;;24.20;50.60;;;;;;5087269;28;20139;-61
2021/07/02 04:44:32;;;;;;;1.15;0.90;;;24.20;50.60;;;;;;5099140;28;20123;-59
2021/07/02 04:46:58;;;;;;;1.33;0.95;;;24.20;50.70;;;;;;5087706;28;20028;-59
2021/07/02 04:49:23;;;;;;;1.50;0.93;;;24.20;50.60;;;;;;5102416;28;20077;-60
2021/07/02 04:51:49;;;;;;;1.55;1.10;;;24.20;50.70;;;;;;5087744;28;20451;-59
2021/07/02 04:54:14;;;;;;;2.75;1.00;;;24.20;50.70;;;;;;5099840;28;20027;-59
2021/07/02 04:56:46;;;;;;;1.80;1.10;;;24.20;50.70;;;;;;5106143;28;20367;-60
2021/07/02 04:59:12;;;;;;;1.60;1.00;;;24.20;50.70;;;;;;5083732;28;20040;-57
2021/07/02 05:01:38;;;;;;;1.40;0.90;;;24.20;50.70;;;;;;5085870;28;20579;-58
2021/07/02 05:04:03;;;;;;;2.00;1.05;;;24.20;50.70;;;;;;5084528;28;20107;-58
2021/07/02 05:06:30;;;;;;;1.55;1.00;;;24.20;50.70;;;;;;5084726;28;20472;-61
2021/07/02 05:08:56;;;;;;;1.58;1.10;;;24.20;50.70;;;;;;5089722;28;20024;-60
2021/07/02 05:11:22;;;;;;;1.52;1.00;;;24.20;50.70;;;;;;5087183;28;20047;-59
2021/07/02 05:13:47;;;;;;;1.20;1.00;;;24.20;50.70;;;;;;5086309;28;20051;-58
2021/07/02 05:16:13;;;;;;;2.35;0.98;;;24.20;50.70;;;;;;5081878;28;20463;-59
2021/07/02 05:18:39;;;;;;;1.20;0.90;;;24.20;50.70;;;;;;5089147;28;20058;-58
2021/07/02 05:21:05;;;;;;;1.42;1.10;;;24.20;50.70;;;;;;5085859;28;20408;-59
2021/07/02 05:23:30;;;;;;;1.15;1.00;;;24.20;50.70;;;;;;5088304;28;20113;-61
2021/07/02 05:25:56;;;;;;;4.13;1.70;;;24.20;50.70;;;;;;5080090;28;20032;-60
2021/07/02 05:28:21;;;;;;;4.18;2.00;;;24.10;49.70;;;;;;5075617;28;20036;-59
2021/07/02 05:30:47;;;;;;;3.78;2.30;;;24.10;48.90;;;;;;5086550;28;20815;-60
2021/07/02 05:33:12;;;;;;;3.72;2.53;;;23.90;48.40;;;;;;5089113;28;20093;-60
2021/07/02 05:35:38;;;;;;;4.88;3.08;;;23.80;48.00;;;;;;5085124;28;20024;-60
2021/07/02 05:38:04;;;;;;;4.32;3.00;;;23.70;48.30;;;;;;5081700;28;20099;-59
2021/07/02 05:40:29;;;;;;;4.53;2.80;;;23.60;47.80;;;;;;5090586;28;20066;-57
2021/07/02 05:42:55;;;;;;;5.00;3.33;;;23.60;48.00;;;;;;5088538;28;20100;-59
2021/07/02 05:45:21;;;;;;;4.22;3.10;;;23.50;48.00;;;;;;5086247;28;20479;-60
2021/07/02 05:47:50;;;;;;;5.18;3.15;;;23.50;47.90;;;;;;5088492;28;20507;-60
2021/07/02 05:50:18;;;;;;;3.53;2.85;;;23.40;48.20;;;;;;5086073;28;20050;-60
2021/07/02 05:52:44;;;;;;;4.75;3.13;;;23.40;48.40;;;;;;5085975;28;20054;-60
2021/07/02 05:55:12;;;;;;;5.60;3.20;;;23.30;48.60;;;;;;5081752;28;20447;-61
2021/07/02 05:57:39;;;;;;;4.68;3.35;;;23.20;48.60;;;;;;5081227;28;20081;-60
2021/07/02 06:00:05;;;;;;;4.82;3.08;;;23.20;48.60;;;;;;5085319;28;20024;-59
2021/07/02 06:02:31;;;;;;;4.30;3.30;;;23.20;48.70;;;;;;5085162;28;20486;-60
2021/07/02 06:04:56;;;;;;;4.10;3.10;;;23.10;48.60;;;;;;5083241;28;20123;-59
2021/07/02 06:07:22;;;;;;;3.80;2.72;;;23.10;48.70;;;;;;5083736;28;20039;-59
2021/07/02 06:09:47;;;;;;;3.75;3.00;;;23.00;48.80;;;;;;5073974;28;20363;-59
2021/07/02 06:12:13;;;;;;;4.65;3.05;;;23.00;49.00;;;;;;5090476;28;20143;-59
2021/07/02 06:14:39;;;;;;;4.70;3.28;;;22.90;49.10;;;;;;5084281;28;20118;-60
2021/07/02 06:17:04;;;;;;;4.80;3.00;;;23.00;49.20;;;;;;5083823;28;20020;-59
2021/07/02 06:19:30;;;;;;;3.50;2.70;;;23.00;49.30;;;;;;5084825;28;20020;-59
2021/07/02 06:21:56;;;;;;;5.03;2.75;;;23.00;49.20;;;;;;5085946;28;20042;-60
2021/07/02 06:24:21;;;;;;;4.13;2.90;;;23.00;49.30;;;;;;5084808;28;20024;-60
2021/07/02 06:26:47;;;;;;;3.78;2.70;;;23.00;49.60;;;;;;5084420;28;20408;-60
2021/07/02 06:29:12;;;;;;;4.15;3.00;;;22.90;49.70;;;;;;5086304;28;20672;-59
2021/07/02 06:31:38;;;;;;;3.80;2.75;;;23.00;49.60;;;;;;5084193;28;20149;-59
2021/07/02 06:34:03;;;;;;;3.58;2.67;;;23.00;49.50;;;;;;5082282;28;20383;-59
2021/07/02 06:36:29;;;;;;;4.18;2.80;;;23.00;49.50;;;;;;5083836;28;20043;-59
2021/07/02 06:38:55;;;;;;;3.88;2.97;;;23.10;49.40;;;;;;5086722;28;20095;-60
2021/07/02 06:41:21;;;;;;;3.90;2.90;;;23.10;49.70;;;;;;5084174;28;20059;-57
2021/07/02 06:43:46;;;;;;;4.93;3.10;;;23.10;49.70;;;;;;5084031;28;20077;-60
2021/07/02 06:46:13;;;;;;;3.42;2.80;;;23.10;49.90;;;;;;5090408;28;20043;-60
2021/07/02 06:48:38;;;;;;;3.30;2.47;;;23.10;49.90;;;;;;5087285;28;20032;-57
2021/07/02 06:51:04;;;;;;;3.88;2.65;;;23.20;49.80;;;;;;5086084;28;20265;-59
2021/07/02 06:53:30;;;;;;;4.45;2.55;;;23.30;49.70;;;;;;5084409;28;20028;-60
2021/07/02 06:55:56;;;;;;;3.47;2.40;;;23.30;49.80;;;;;;5085424;28;20039;-58
2021/07/02 06:58:22;;;;;;;4.63;2.83;;;23.40;49.80;;;;;;5082784;28;20019;-59
2021/07/02 07:00:47;;;;;;;3.58;2.45;;;23.50;50.10;;;;;;5067951;28;20040;-56
2021/07/02 07:03:13;;;;;;;4.97;3.08;;;23.50;49.50;;;;;;5061929;28;20094;-59
2021/07/02 07:05:40;;;;;;;4.90;2.90;;;23.50;49.30;;;;;;5079774;28;20034;-57
2021/07/02 07:08:08;;;;;;;5.15;3.00;;;23.50;49.10;;;;;;5080808;28;20032;-58
2021/07/02 07:10:34;;;;;;;4.30;2.70;;;23.50;49.50;;;;;;5066069;28;20123;-57
2021/07/02 07:13:01;;;;;;;3.85;2.63;;;23.50;49.00;;;;;;5083192;28;20081;-58
2021/07/02 07:15:27;;;;;;;3.58;2.60;;;23.60;48.80;;;;;;5086580;28;20036;-60
2021/07/02 07:17:54;;;;;;;3.08;2.38;;;23.60;48.70;;;;;;5084353;28;20028;-58
2021/07/02 07:20:20;;;;;;;3.35;2.50;;;23.70;48.70;;;;;;5084275;28;20074;-60
2021/07/02 07:22:47;;;;;;;3.20;2.47;;;23.70;48.50;;;;;;5085543;28;20026;-57
2021/07/02 07:25:13;;;;;;;3.97;2.60;;;23.70;48.40;;;;;;5068218;28;20024;-60
2021/07/02 07:27:41;;;;;;;3.85;2.70;;;23.80;48.30;;;;;;5099648;28;20486;-57
2021/07/02 07:30:07;;;;;;;3.53;2.38;;;23.80;48.80;;;;;;5098875;28;20063;-59
2021/07/02 07:32:34;;;;;;;3.38;2.50;;;23.80;48.20;;;;;;5089453;28;20501;-58
2021/07/02 07:35:03;;;;;;;3.40;2.58;;;23.80;48.00;;;;;;5086878;28;20020;-59
2021/07/02 07:37:31;;;;;;;3.28;2.33;;;23.80;48.00;;;;;;5089399;28;20495;-61
2021/07/02 07:39:57;;;;;;;3.25;2.40;;;23.90;47.90;;;;;;5090314;28;20067;-59
2021/07/02 07:42:23;;;;;;;3.53;2.33;;;23.90;47.90;;;;;;5090362;28;20376;-59
2021/07/02 07:44:48;;;;;;;3.63;2.35;;;23.90;47.70;;;;;;5089072;28;20038;-55
2021/07/02 07:47:14;;;;;;;4.38;2.72;;;23.90;47.60;;;;;;5069856;28;20028;-59
2021/07/02 07:49:40;;;;;;;3.22;2.40;;;23.90;47.40;;;;;;5087975;28;20036;-55
2021/07/02 07:54:34;;;;;;;3.50;2.53;;;23.90;47.20;;;;;;5091678;28;20036;-56
2021/07/02 07:57:00;;;;;;;2.88;2.28;;;24.00;47.10;;;;;;5089373;28;20684;-57
2021/07/02 07:59:27;;;;;;;3.30;2.40;;;24.00;47.00;;;;;;5088847;28;20035;-59
2021/07/02 08:01:53;;;;;;;2.80;2.15;;;24.00;46.90;;;;;;5088327;28;20040;-60
2021/07/02 08:04:18;;;;;;;3.63;2.50;;;24.00;46.30;;;;;;5085595;28;20255;-58
2021/07/02 08:06:45;;;;;;;3.20;2.33;;;24.00;46.20;;;;;;5087112;28;20043;-59
2021/07/02 08:09:12;;;;;;;4.53;2.30;;;24.00;46.20;;;;;;5090121;28;20179;-60
2021/07/02 08:11:39;;;;;;;4.55;2.28;;;24.10;46.30;;;;;;5088218;28;20098;-58
2021/07/02 08:14:06;;;;;;;2.78;2.22;;;24.10;45.90;;;;;;5086395;28;20031;-57
2021/07/02 08:16:31;;;;;;;3.63;2.33;;;24.10;45.60;;;;;;5098464;28;20120;-59
2021/07/02 08:18:57;;;;;;;3.15;2.20;;;24.10;45.70;;;;;;5086574;28;20032;-58
2021/07/02 08:21:24;;;;;;;3.10;2.50;;;24.10;45.80;;;;;;5088152;28;20107;-56
2021/07/02 08:23:49;;;;;;;3.47;2.67;;;24.10;45.80;;;;;;5104302;28;20028;-59
2021/07/02 08:26:16;;;;;;;3.53;2.45;;;24.10;45.90;;;;;;5086629;28;20047;-56
2021/07/02 08:31:26;;;;;;;2.70;1.95;;;24.20;46.00;;;;;;5086761;28;20058;-57
2021/07/02 08:33:51;;;;;;;3.47;2.30;;;24.20;46.30;;;;;;5085799;28;20028;-61
2021/07/02 08:36:17;;;;;;;2.60;2.08;;;24.20;46.20;;;;;;5086076;28;20087;-55
2021/07/02 08:38:43;;;;;;;2.90;2.35;;;24.20;46.30;;;;;;5087837;28;20038;-57
2021/07/02 08:41:11;;;;;;;2.78;2.08;;;24.20;46.40;;;;;;5087845;28;20024;-51
2021/07/02 08:43:38;;;;;;;2.83;2.13;;;24.30;46.50;;;;;;5085535;28;20403;-57
2021/07/02 08:46:04;;;;;;;2.85;2.20;;;24.30;46.60;;;;;;5086751;28;20277;-57
2021/07/02 08:48:31;;;;;;;3.80;2.03;;;24.30;46.60;;;;;;5067881;28;20371;-59
2021/07/02 08:50:56;;;;;;;2.75;1.92;;;24.30;46.80;;;;;;5087865;28;20036;-59
2021/07/02 08:53:22;;;;;;;3.05;2.10;;;24.30;46.80;;;;;;5086905;28;20028;-60
2021/07/02 08:55:50;;;;;;;2.85;1.85;;;24.30;46.80;;;;;;5086500;28;20065;-57
2021/07/02 08:58:16;;;;;;;3.08;2.10;;;24.40;46.80;;;;;;5078467;28;20476;-57
2021/07/02 09:00:43;;;;;;;3.00;2.13;;;24.40;46.80;;;;;;5086951;28;20048;-59
2021/07/02 09:03:32;;;;;;;2.78;2.10;;;24.40;46.90;;;;;;5089328;28;20036;-56
2021/07/02 09:06:12;;;;;;;3.05;2.22;;;24.40;47.00;;;;;;5083722;28;20036;-59
2021/07/02 09:08:39;;;;;;;2.75;2.00;;;24.50;47.10;;;;;;5087189;28;20023;-57
2021/07/02 09:11:26;;;;;;;2.67;1.92;;;24.40;47.00;;;;;;5086983;28;20111;-55
2021/07/02 09:13:53;;;;;;;2.80;2.05;;;24.50;47.00;;;;;;5081880;28;20089;-57
2021/07/02 09:16:28;;;;;;;2.60;2.00;;;24.50;46.90;;;;;;5084679;28;20021;-58
2021/07/02 09:18:55;;;;;;;2.80;2.00;;;24.60;47.00;;;;;;5075052;28;20032;-59
2021/07/02 09:21:30;;;;;;;2.70;1.98;;;24.60;47.10;;;;;;5088137;28;20459;-60
2021/07/02 09:23:58;;;;;;;2.70;1.90;;;24.60;46.90;;;;;;5084884;28;20477;-60
2021/07/02 09:26:43;;;;;;;2.90;2.20;;;24.60;47.00;;;;;;5088912;28;20028;-59
2021/07/02 09:29:23;;;;;;;2.70;2.10;;;24.60;46.90;;;;;;5079635;28;20063;-59
2021/07/02 09:31:57;;;;;;;2.60;2.03;;;24.60;46.90;;;;;;5082771;28;20158;-57
2021/07/02 09:34:43;;;;;;;3.13;2.10;;;24.60;46.90;;;;;;5076089;28;20024;-56
2021/07/02 09:37:31;;;;;;;2.78;2.15;;;24.60;46.90;;;;;;5080182;28;20032;-58
2021/07/02 09:40:08;;;;;;;2.83;2.10;;;24.60;46.90;;;;;;5085718;28;20040;-60
2021/07/02 09:42:34;;;;;;;2.67;2.03;;;24.60;46.90;;;;;;5079877;28;20119;-58
2021/07/02 09:45:17;;;;;;;2.45;1.90;;;24.70;46.90;;;;;;5087324;28;20032;-57
2021/07/02 09:47:45;;;;;;;2.80;2.00;;;24.70;47.00;;;;;;5084966;28;20077;-60
2021/07/02 09:50:20;;;;;;;2.78;1.80;;;24.70;46.90;;;;;;5077302;28;20042;-57
2021/07/02 09:52:46;;;;;;;3.00;2.10;;;24.70;46.90;;;;;;5087783;28;20312;-56
2021/07/02 09:55:13;;;;;;;2.70;2.00;;;24.70;46.90;;;;;;5086932;28;20028;-60
2021/07/02 09:57:39;;;;;;;2.67;1.90;;;24.70;47.00;;;;;;5078003;28;20016;-58
2021/07/02 10:00:07;;;;;;;2.60;1.92;;;24.70;47.00;;;;;;5081449;28;20466;-59
2021/07/02 10:02:33;;;;;;;2.60;1.90;;;24.70;46.90;;;;;;5086707;28;20028;-57
2021/07/02 10:05:03;;;;;;;2.88;2.10;;;24.70;46.90;;;;;;5084172;28;20032;-58
2021/07/02 10:07:29;;;;;;;2.95;1.90;;;24.70;46.90;;;;;;5070517;28;20020;-60
2021/07/02 10:09:54;;;;;;;2.70;1.90;;;24.70;47.00;;;;;;5087510;28;20043;-61
2021/07/02 10:12:22;;;;;;;2.70;2.00;;;24.70;47.30;;;;;;5100261;28;20102;-59
2021/07/02 10:14:49;;;;;;;2.83;1.70;;;24.70;46.90;;;;;;5085030;28;20115;-55
2021/07/02 10:17:18;;;;;;;2.42;1.77;;;24.70;47.00;;;;;;5069816;28;20028;-54
2021/07/02 10:19:45;;;;;;;3.08;2.00;;;24.70;47.00;;;;;;5085150;28;20329;-56
2021/07/02 10:22:14;;;;;;;2.63;2.00;;;24.80;46.90;;;;;;5088002;28;20040;-55
2021/07/02 10:24:40;;;;;;;2.70;1.90;;;24.80;47.00;;;;;;5087110;28;20643;-56
2021/07/02 10:27:08;;;;;;;2.45;1.90;;;24.80;47.00;;;;;;5086725;28;20493;-60
2021/07/02 10:29:34;;;;;;;2.63;2.00;;;24.80;47.00;;;;;;5086310;28;20032;-59
2021/07/02 10:32:00;;;;;;;2.58;2.00;;;24.80;47.00;;;;;;5085912;28;20128;-58
2021/07/02 10:34:26;;;;;;;3.45;1.95;;;24.80;46.90;;;;;;5090062;28;20445;-61
2021/07/02 10:36:52;;;;;;;2.40;1.73;;;24.80;46.90;;;;;;5090951;28;20425;-57
2021/07/02 10:39:30;;;;;;;2.80;1.88;;;24.80;46.90;;;;;;5086974;28;20028;-55
2021/07/02 10:42:06;;;;;;;2.75;1.90;;;24.80;47.00;;;;;;5083700;28;20051;-57
2021/07/02 10:44:32;;;;;;;3.05;2.00;;;24.80;47.00;;;;;;5084912;28;20426;-60
2021/07/02 10:46:57;;;;;;;2.80;1.77;;;24.90;47.00;;;;;;5081427;28;20058;-55
2021/07/02 10:49:35;;;;;;;2.33;1.80;;;24.90;47.00;;;;;;5080289;28;20036;-59
2021/07/02 10:52:22;;;;;;;2.70;2.00;;;24.90;47.00;;;;;;5085163;28;20036;-57
2021/07/02 10:54:53;;;;;;;2.83;1.90;;;24.90;47.00;;;;;;5075553;28;20113;-56
2021/07/02 10:57:21;;;;;;;2.88;2.00;;;24.90;46.90;;;;;;5079651;28;20131;-58
2021/07/02 10:59:49;;;;;;;2.50;1.85;;;24.90;47.00;;;;;;5074437;28;20163;-56
2021/07/02 11:02:19;;;;;;;2.73;2.07;;;25.00;47.00;;;;;;5080668;28;20423;-57
2021/07/02 11:04:49;;;;;;;;;;;25.00;47.00;;;;;;5086089;28;20046;-55
2021/07/02 11:07:14;;;;;;;2.30;1.77;;;25.00;47.00;;;;;;5089734;28;20422;-56
2021/07/02 11:09:49;;;;;;;3.45;1.70;;;25.00;47.00;;;;;;5084341;28;20024;-59
2021/07/02 11:12:35;;;;;;;3.00;2.13;;;25.00;47.00;;;;;;5086833;28;20431;-57
2021/07/02 11:15:06;;;;;;;2.55;1.92;;;25.00;46.90;;;;;;5088437;28;20048;-56
2021/07/02 11:17:31;;;;;;;2.13;1.63;;;25.00;47.00;;;;;;5085340;28;20586;-58
2021/07/02 11:20:12;;;;;;;2.88;1.80;;;25.10;47.00;;;;;;5062278;28;20094;-58
2021/07/02 11:22:42;;;;;;;2.50;2.00;;;25.10;47.00;;;;;;5086945;28;20024;-57
2021/07/02 11:25:13;;;;;;;2.10;1.60;;;25.10;47.10;;;;;;5083524;28;20459;-57
2021/07/02 11:27:44;;;;;;;2.75;2.08;;;25.10;47.10;;;;;;5064085;28;20366;-54
2021/07/02 11:30:13;;;;;;;2.40;1.63;;;25.10;47.00;;;;;;5072710;28;20154;-54
2021/07/02 11:32:45;;;;;;;2.50;1.83;;;25.10;47.00;;;;;;5093412;28;20024;-57
2021/07/02 11:35:30;;;;;;;2.63;2.03;;;25.10;46.90;;;;;;5088025;28;20206;-53
2021/07/02 11:37:59;;;;;;;2.38;1.80;;;25.10;46.90;;;;;;5092373;28;20472;-56
2021/07/02 11:40:26;;;;;;;2.55;1.88;;;25.10;47.40;;;;;;5103479;28;20024;-55
2021/07/02 11:42:51;;;;;;;2.13;1.70;;;25.10;46.90;;;;;;5106263;28;20027;-53
2021/07/02 11:45:17;;;;;;;2.67;1.80;;;25.10;46.90;;;;;;5087348;28;20467;-59
2021/07/02 11:47:42;;;;;;;2.13;1.70;;;25.10;47.00;;;;;;5085242;28;20134;-57
2021/07/02 11:50:08;;;;;;;2.72;1.98;;;25.10;46.90;;;;;;5085676;28;20151;-56
2021/07/02 11:52:35;;;;;;;2.53;1.90;;;25.10;47.00;;;;;;5085934;28;20086;-55
2021/07/02 11:55:01;;;;;;;2.45;2.03;;;25.10;47.00;;;;;;5084963;28;20411;-59
2021/07/02 11:57:27;;;;;;;2.08;1.60;;;25.10;47.00;;;;;;5080698;28;20028;-60
2021/07/02 12:00:00;;;;;;;2.78;2.03;;;25.10;47.00;;;;;;5084605;28;20028;-57
2021/07/02 12:02:27;;;;;;;2.88;1.65;;;25.10;47.00;;;;;;5061870;28;20344;-52
2021/07/02 12:05:09;;;;;;;2.42;1.75;;;25.10;47.00;;;;;;5082397;28;20292;-53
2021/07/02 12:07:35;;;;;;;2.40;1.83;;;25.10;47.00;;;;;;5088396;28;20024;-54
2021/07/02 12:10:01;;;;;;;2.20;1.70;;;25.10;47.10;;;;;;5084084;28;20034;-59
2021/07/02 12:12:27;;;;;;;2.50;1.80;;;25.10;47.10;;;;;;5082863;28;20028;-58
2021/07/02 12:14:53;;;;;;;3.05;1.95;;;25.10;47.20;;;;;;5098992;28;20043;-54
2021/07/02 12:17:19;;;;;;;1.83;1.50;;;25.10;47.20;;;;;;5086553;28;20024;-56
2021/07/02 12:19:44;;;;;;;2.53;1.90;;;25.00;47.10;;;;;;5081163;28;20349;-55
2021/07/02 12:22:13;;;;;;;3.13;1.90;;;25.00;47.10;;;;;;5094344;28;20023;-52
2021/07/02 12:24:45;;;;;;;2.33;1.77;;;25.00;47.20;;;;;;5087054;28;20024;-56
2021/07/02 12:27:14;;;;;;;2.25;1.60;;;25.00;47.70;;;;;;5105833;28;20027;-51
2021/07/02 12:29:43;;;;;;;2.20;1.63;;;25.00;47.20;;;;;;5099305;28;20446;-52
2021/07/02 12:32:13;;;;;;;2.22;1.85;;;25.00;47.70;;;;;;5088863;28;20451;-54
2021/07/02 12:34:41;;;;;;;2.20;1.67;;;25.00;47.30;;;;;;5091710;28;20044;-53
2021/07/02 12:37:16;;;;;;;2.22;1.70;;;25.00;47.30;;;;;;5082507;28;20020;-59
2021/07/02 12:39:43;;;;;;;2.45;1.73;;;25.00;47.30;;;;;;5061283;28;20036;-50
2021/07/02 12:42:12;;;;;;;2.42;1.70;;;25.00;47.10;;;;;;5075702;28;20063;-57
2021/07/02 12:44:39;;;;;;;2.28;1.70;;;25.00;47.00;;;;;;5082134;28;20459;-59
2021/07/02 12:47:07;;;;;;;2.40;1.77;;;24.90;47.00;;;;;;5083605;28;20074;-53
2021/07/02 12:49:42;;;;;;;1.95;1.52;;;24.90;47.00;;;;;;5086309;28;20105;-57
2021/07/02 12:55:00;;;;;;;2.30;1.73;;;24.90;47.10;;;;;;5084191;28;20026;-55
2021/07/02 12:57:29;;;;;;;2.65;1.80;;;24.90;47.10;;;;;;5085932;28;20039;-51